createdAt,value
2023-01-18T00:06:12.345Z,0
2023-01-18T00:12:35.523Z,0
2023-01-18T00:18:55.398Z,0
2023-01-18T00:25:18.399Z,0
2023-01-18T00:31:38.426Z,0
2023-01-18T00:38:01.423Z,0
2023-01-18T00:44:21.327Z,0
2023-01-18T00:50:44.374Z,0
2023-01-18T00:57:04.524Z,0
2023-01-18T01:03:27.413Z,0
2023-01-18T01:09:47.381Z,0
2023-01-18T01:16:10.595Z,0
2023-01-18T01:22:30.352Z,0
2023-01-18T01:28:53.408Z,0
2023-01-18T01:35:13.389Z,0
2023-01-18T01:41:36.433Z,0
2023-01-18T01:47:56.353Z,0
2023-01-18T01:54:19.436Z,0
2023-01-18T02:00:39.348Z,0
2023-01-18T02:07:02.388Z,0
2023-01-18T02:13:22.372Z,0
2023-01-18T02:19:45.421Z,0
2023-01-18T02:26:05.356Z,0
2023-01-18T02:32:28.464Z,0
2023-01-18T02:38:48.360Z,0
2023-01-18T02:45:11.414Z,0
2023-01-18T02:51:31.448Z,0
2023-01-18T02:57:54.534Z,0
2023-01-18T03:04:14.424Z,0
2023-01-18T03:10:37.571Z,0
2023-01-18T03:16:57.361Z,0
2023-01-18T03:23:20.413Z,0
2023-01-18T03:29:40.431Z,0
2023-01-18T03:36:03.481Z,0
2023-01-18T03:42:23.442Z,0
2023-01-18T03:48:46.520Z,0
2023-01-18T03:55:06.349Z,0
2023-01-18T04:01:29.482Z,0
2023-01-18T04:17:37.146Z,0
2023-01-18T04:23:57.373Z,0
2023-01-18T04:30:20.371Z,0
2023-01-18T04:36:40.372Z,0
2023-01-18T04:43:03.335Z,0
2023-01-18T04:49:23.345Z,0
2023-01-18T04:55:46.479Z,0
2023-01-18T05:02:06.408Z,0
2023-01-18T05:08:29.464Z,0
2023-01-18T05:14:49.499Z,0
2023-01-18T05:21:12.361Z,0
2023-01-18T05:27:32.471Z,0
2023-01-18T05:33:55.454Z,0
2023-01-18T05:40:15.407Z,0
2023-01-18T05:46:38.447Z,0
2023-01-18T05:52:58.669Z,0
2023-01-18T05:59:21.398Z,0
2023-01-18T06:05:41.387Z,0
2023-01-18T06:12:04.405Z,0
2023-01-18T06:18:24.361Z,0
2023-01-18T06:24:47.381Z,0
2023-01-18T06:31:07.403Z,0
2023-01-18T06:37:30.449Z,0
2023-01-18T06:43:50.417Z,0
2023-01-18T06:50:13.387Z,0
2023-01-18T06:56:33.450Z,1
2023-01-18T07:02:56.745Z,2
2023-01-18T07:09:16.417Z,5
2023-01-18T07:15:39.335Z,10
2023-01-18T07:21:59.408Z,19
2023-01-18T07:28:22.513Z,33
2023-01-18T07:34:42.418Z,53
2023-01-18T07:41:05.409Z,81
2023-01-18T07:47:25.412Z,113
2023-01-18T07:53:48.430Z,143
2023-01-18T08:00:08.380Z,181
2023-01-18T08:06:31.439Z,237
2023-01-18T08:12:51.405Z,276
2023-01-18T08:19:14.514Z,330
2023-01-18T08:25:34.428Z,377
2023-01-18T08:31:57.557Z,464
2023-01-18T08:38:17.381Z,571
2023-01-18T08:44:40.458Z,663
2023-01-18T08:51:00.432Z,761
2023-01-18T08:57:23.926Z,804
2023-01-18T09:03:44.413Z,893
2023-01-18T09:10:07.442Z,1026
2023-01-18T09:16:27.558Z,1284
2023-01-18T09:32:18.894Z,1542
2023-01-18T09:38:38.336Z,1789
2023-01-18T09:45:01.394Z,1687
2023-01-18T09:51:21.465Z,1440
2023-01-18T09:57:44.568Z,1682
2023-01-18T10:04:04.484Z,1681
2023-01-18T10:10:27.387Z,1936
2023-01-18T10:16:47.334Z,2192
2023-01-18T10:23:10.496Z,2240
2023-01-18T10:29:30.428Z,2081
2023-01-18T10:35:53.385Z,1853
2023-01-18T10:42:13.409Z,2170
2023-01-18T10:48:36.397Z,2041
2023-01-18T10:54:56.467Z,2260
2023-01-18T11:01:19.425Z,2437
2023-01-18T11:07:39.657Z,1887
2023-01-18T11:14:02.479Z,1770
2023-01-18T11:20:22.520Z,1895
2023-01-18T11:26:45.470Z,1976
2023-01-18T11:33:05.357Z,2443
2023-01-18T11:39:28.619Z,1695
2023-01-18T11:45:48.464Z,2024
2023-01-18T11:52:11.354Z,3042
2023-01-18T11:58:31.377Z,2579
2023-01-18T12:04:54.368Z,2739
2023-01-18T12:11:14.456Z,2480
2023-01-18T12:17:37.456Z,2456
2023-01-18T12:23:57.459Z,2236
2023-01-18T12:30:20.404Z,3224
2023-01-18T12:36:40.338Z,2799
2023-01-18T12:43:03.501Z,3204
2023-01-18T12:49:23.638Z,3370
2023-01-18T12:55:46.736Z,3377
2023-01-18T13:02:07.712Z,4382
2023-01-18T13:08:30.388Z,4153
2023-01-18T13:14:50.537Z,4141
2023-01-18T13:21:13.440Z,4200
2023-01-18T13:27:34.171Z,3903
2023-01-18T13:33:57.456Z,3634
2023-01-18T13:40:17.432Z,2799
2023-01-18T13:46:40.610Z,3208
2023-01-18T13:53:00.803Z,2699
2023-01-18T13:59:23.537Z,2291
2023-01-18T14:05:43.417Z,2242
2023-01-18T14:27:55.391Z,1957
2023-01-18T14:34:15.330Z,1833
2023-01-18T14:40:38.361Z,1666
2023-01-18T14:46:58.494Z,1325
2023-01-18T14:53:21.403Z,800
2023-01-18T14:59:41.349Z,992
2023-01-18T15:06:04.498Z,1016
2023-01-18T15:12:24.404Z,926
2023-01-18T15:18:47.449Z,767
2023-01-18T15:25:07.502Z,523
2023-01-18T15:31:30.517Z,327
2023-01-18T15:37:50.479Z,253
2023-01-18T15:44:13.493Z,189
2023-01-18T15:50:33.350Z,133
2023-01-18T15:56:56.484Z,85
2023-01-18T16:03:16.480Z,48
2023-01-18T16:09:39.324Z,23
2023-01-18T16:15:59.414Z,10
2023-01-18T16:22:22.573Z,5
2023-01-18T16:28:42.472Z,1
2023-01-18T16:35:05.490Z,0
2023-01-18T16:41:25.419Z,0
2023-01-18T16:47:48.534Z,0
2023-01-18T16:54:08.416Z,0
2023-01-18T17:00:31.378Z,0
2023-01-18T17:06:51.361Z,0
2023-01-18T17:13:14.473Z,0
2023-01-18T17:19:34.511Z,0
2023-01-18T17:25:57.356Z,0
2023-01-18T17:32:17.352Z,0
2023-01-18T17:38:40.499Z,0
2023-01-18T17:45:00.449Z,0
2023-01-18T17:51:23.455Z,0
2023-01-18T17:57:43.368Z,0
2023-01-18T18:04:06.352Z,0
2023-01-18T18:10:26.364Z,0
2023-01-18T18:16:49.459Z,0
2023-01-18T18:23:09.564Z,0
2023-01-18T18:29:32.490Z,0
2023-01-18T18:35:52.471Z,0
2023-01-18T18:42:15.402Z,0
2023-01-18T18:48:35.413Z,0
2023-01-18T18:54:58.414Z,0
2023-01-18T19:01:18.605Z,0
2023-01-18T19:07:41.375Z,0
2023-01-18T19:32:46.371Z,0
2023-01-18T19:39:09.204Z,0
2023-01-18T19:45:29.367Z,0
2023-01-18T19:51:49.349Z,0
2023-01-18T19:58:12.389Z,0
2023-01-18T20:04:32.572Z,0
2023-01-18T20:10:55.480Z,0
2023-01-18T20:17:15.511Z,0
2023-01-18T20:23:38.423Z,0
2023-01-18T20:29:58.489Z,0
2023-01-18T20:36:21.385Z,0
2023-01-18T20:42:41.516Z,0
2023-01-18T20:49:04.495Z,0
2023-01-18T20:55:24.411Z,0
2023-01-18T21:01:47.522Z,0
2023-01-18T21:08:07.411Z,0
2023-01-18T21:14:30.331Z,0
2023-01-18T21:20:50.476Z,0
2023-01-18T21:27:13.421Z,0
2023-01-18T21:33:33.326Z,0
2023-01-18T21:39:56.414Z,0
2023-01-18T21:46:16.461Z,0
2023-01-18T21:52:39.539Z,0
2023-01-18T21:58:59.388Z,0
2023-01-18T22:05:22.383Z,0
2023-01-18T22:11:42.385Z,0
2023-01-18T22:18:05.457Z,0
2023-01-18T22:24:25.358Z,0
2023-01-18T22:30:48.447Z,0
2023-01-18T22:37:08.331Z,0
2023-01-18T22:43:31.429Z,0
2023-01-18T22:49:51.313Z,0
2023-01-18T22:56:14.402Z,0
2023-01-18T23:20:29.355Z,0
2023-01-18T23:26:49.372Z,0
2023-01-18T23:33:12.438Z,0
2023-01-18T23:39:32.379Z,0
2023-01-18T23:45:55.362Z,0
2023-01-18T23:52:15.346Z,0
2023-01-18T23:58:38.484Z,0
